createdAt,value
2019-01-16T00:02:14.697Z,5.21
2019-01-16T00:05:04.541Z,5.22
2019-01-16T00:07:48.967Z,5.19
2019-01-16T00:10:32.471Z,5.38
2019-01-16T00:13:13.443Z,5.16
2019-01-16T00:16:02.145Z,5.16
2019-01-16T00:18:51.978Z,5.19
2019-01-16T00:21:35.851Z,5.19
2019-01-16T00:24:20.819Z,5.22
2019-01-16T00:27:09.206Z,5.19
2019-01-16T00:29:53.715Z,5.30
2019-01-16T00:32:43.166Z,5.41
2019-01-16T00:35:31.677Z,5.41
2019-01-16T00:38:20.679Z,5.41
2019-01-16T00:41:01.417Z,5.41
2019-01-16T00:43:42.930Z,5.15
2019-01-16T00:46:25.347Z,5.15
2019-01-16T00:49:13.827Z,5.24
2019-01-16T00:52:03.907Z,5.16
2019-01-16T00:54:41.984Z,5.13
2019-01-16T00:57:30.302Z,5.19
2019-01-16T01:00:12.232Z,5.19
2019-01-16T01:02:53.197Z,5.18
2019-01-16T01:05:35.100Z,5.09
2019-01-16T01:08:23.368Z,5.09
2019-01-16T01:11:13.598Z,5.22
2019-01-16T01:14:01.975Z,5.22
2019-01-16T01:16:40.693Z,5.04
2019-01-16T01:19:27.942Z,5.01
2019-01-16T01:22:08.037Z,5.02
2019-01-16T01:24:56.525Z,5.02
2019-01-16T01:28:02.329Z,5.14
2019-01-16T01:30:41.203Z,5.03
2019-01-16T01:33:22.211Z,5.12
2019-01-16T01:36:05.209Z,5.05
2019-01-16T01:38:53.712Z,5.05
2019-01-16T01:41:42.373Z,5.18
2019-01-16T01:44:20.352Z,5.06
2019-01-16T01:46:58.300Z,5.08
2019-01-16T01:49:37.794Z,5.13
2019-01-16T01:52:15.145Z,5.02
2019-01-16T01:55:03.354Z,5.14
2019-01-16T01:57:42.621Z,5.12
2019-01-16T02:00:32.636Z,5.13
2019-01-16T02:03:17.327Z,5.01
2019-01-16T02:06:06.651Z,5.01
2019-01-16T02:08:45.713Z,5.06
2019-01-16T02:11:33.899Z,5.19
2019-01-16T02:14:22.363Z,5.18
2019-01-16T02:17:01.301Z,5.11
2019-01-16T02:19:41.859Z,4.99
2019-01-16T02:22:27.440Z,4.99
2019-01-16T02:25:15.703Z,5.07
2019-01-16T02:30:59.786Z,4.97
2019-01-16T02:33:48.850Z,5.01
2019-01-16T02:36:37.262Z,5.08
2019-01-16T02:39:12.229Z,5.16
2019-01-16T02:42:00.426Z,5.20
2019-01-16T02:44:43.796Z,5.14
2019-01-16T02:47:28.555Z,5.17
2019-01-16T02:50:16.748Z,5.13
2019-01-16T02:53:02.379Z,5.13
2019-01-16T02:55:45.618Z,5.06
2019-01-16T02:58:28.416Z,5.10
2019-01-16T03:01:16.654Z,5.10
2019-01-16T03:04:00.959Z,5.10
2019-01-16T03:06:38.536Z,5.04
2019-01-16T03:09:27.165Z,5.17
2019-01-16T03:12:10.712Z,5.28
2019-01-16T03:14:47.444Z,5.16
2019-01-16T03:17:33.146Z,5.16
2019-01-16T03:20:19.152Z,5.13
2019-01-16T03:23:04.253Z,5.10
2019-01-16T03:25:40.375Z,5.01
2019-01-16T03:28:22.948Z,4.96
2019-01-16T03:30:58.497Z,4.99
2019-01-16T03:33:38.709Z,4.96
2019-01-16T03:36:18.426Z,5.03
2019-01-16T03:38:55.978Z,5.06
2019-01-16T03:41:44.332Z,5.05
2019-01-16T03:44:33.695Z,5.01
2019-01-16T03:47:21.897Z,5.03
2019-01-16T03:50:03.597Z,5.06
2019-01-16T03:52:53.785Z,5.01
2019-01-16T03:55:37.299Z,5.24
2019-01-16T03:58:25.999Z,5.02
2019-01-16T04:01:16.332Z,4.95
2019-01-16T04:03:58.381Z,4.99
2019-01-16T04:06:37.737Z,5.11
2019-01-16T04:09:29.300Z,5.09
2019-01-16T04:12:17.445Z,4.99
2019-01-16T04:15:06.162Z,4.96
2019-01-16T04:17:54.547Z,4.78
2019-01-16T04:20:42.922Z,4.93
2019-01-16T04:23:33.488Z,4.93
2019-01-16T04:26:16.726Z,4.89
2019-01-16T04:29:05.147Z,4.75
2019-01-16T04:31:47.367Z,4.75
2019-01-16T04:34:35.717Z,5.07
2019-01-16T04:37:17.775Z,4.83
2019-01-16T04:40:00.821Z,4.94
2019-01-16T04:42:39.236Z,4.94
2019-01-16T04:45:28.302Z,5.10
2019-01-16T04:48:17.995Z,5.18
2019-01-16T04:51:06.409Z,5.18
2019-01-16T04:53:46.991Z,5.02
2019-01-16T04:56:35.375Z,4.96
2019-01-16T04:59:24.154Z,4.96
2019-01-16T05:02:12.438Z,5.02
2019-01-16T05:05:01.250Z,5.02
2019-01-16T05:07:45.897Z,5.01
2019-01-16T05:10:23.145Z,5.01
2019-01-16T05:13:11.552Z,4.95
2019-01-16T05:15:59.118Z,4.91
2019-01-16T05:18:43.113Z,5.06
2019-01-16T05:21:31.619Z,5.06
2019-01-16T05:24:16.040Z,5.03
2019-01-16T05:27:06.942Z,4.93
2019-01-16T05:29:55.438Z,4.93
2019-01-16T05:32:35.840Z,5.02
2019-01-16T05:35:19.015Z,5.01
2019-01-16T05:37:56.958Z,5.01
2019-01-16T05:40:45.233Z,4.98
2019-01-16T05:43:26.486Z,4.91
2019-01-16T05:46:14.920Z,5.03
2019-01-16T05:48:53.241Z,5.03
2019-01-16T05:51:44.098Z,4.87
2019-01-16T05:54:23.809Z,4.87
2019-01-16T05:57:02.823Z,5.00
2019-01-16T05:59:48.445Z,5.06
2019-01-16T06:02:34.923Z,5.06
2019-01-16T06:05:20.967Z,4.98
2019-01-16T06:08:06.844Z,4.95
2019-01-16T06:10:55.860Z,4.87
2019-01-16T06:13:33.276Z,4.88
2019-01-16T06:16:16.415Z,5.01
2019-01-16T06:19:01.793Z,4.90
2019-01-16T06:21:48.327Z,4.90
2019-01-16T06:24:36.613Z,5.10
2019-01-16T06:27:22.344Z,4.94
2019-01-16T06:30:11.181Z,5.02
2019-01-16T06:32:53.175Z,5.02
2019-01-16T06:35:43.982Z,4.96
2019-01-16T06:38:32.379Z,4.93
2019-01-16T06:41:15.732Z,4.99
2019-01-16T06:44:04.569Z,4.99
2019-01-16T06:46:52.943Z,5.02
2019-01-16T06:49:28.039Z,4.87
2019-01-16T06:52:04.473Z,4.82
2019-01-16T06:54:50.699Z,4.82
2019-01-16T06:57:39.291Z,5.00
2019-01-16T07:00:21.581Z,5.01
2019-01-16T07:03:10.387Z,4.87
2019-01-16T07:05:53.326Z,5.07
2019-01-16T07:08:35.443Z,5.05
2019-01-16T07:11:23.627Z,4.92
2019-01-16T07:14:06.675Z,4.81
2019-01-16T07:16:52.384Z,4.94
2019-01-16T07:19:41.109Z,4.77
2019-01-16T07:22:26.434Z,4.77
2019-01-16T07:25:15.090Z,4.82
2019-01-16T07:27:57.417Z,4.86
2019-01-16T07:30:37.335Z,4.93
2019-01-16T07:33:25.490Z,4.91
2019-01-16T07:36:10.404Z,4.80
2019-01-16T07:38:54.547Z,4.86
2019-01-16T07:41:36.437Z,4.84
2019-01-16T07:44:24.871Z,4.92
2019-01-16T07:47:08.276Z,4.89
2019-01-16T07:49:57.308Z,4.89
2019-01-16T07:52:41.747Z,4.83
2019-01-16T07:55:32.764Z,4.92
2019-01-16T07:58:24.093Z,4.82
2019-01-16T08:01:12.485Z,4.80
2019-01-16T08:04:08.076Z,4.78
2019-01-16T08:06:56.555Z,4.78
2019-01-16T08:09:34.803Z,4.78
2019-01-16T08:12:25.381Z,4.68
2019-01-16T08:15:06.800Z,4.68
2019-01-16T08:17:55.251Z,4.86
2019-01-16T08:20:45.123Z,4.59
2019-01-16T08:23:21.426Z,4.66
2019-01-16T08:26:07.999Z,4.71
2019-01-16T08:28:57.018Z,4.71
2019-01-16T08:31:49.529Z,4.62
2019-01-16T08:34:36.779Z,4.62
2019-01-16T08:37:17.349Z,4.54
2019-01-16T08:40:02.074Z,4.53
2019-01-16T08:42:50.331Z,4.53
2019-01-16T08:45:30.370Z,4.59
2019-01-16T08:48:19.280Z,4.64
2019-01-16T08:51:08.049Z,4.64
2019-01-16T08:53:56.514Z,4.72
2019-01-16T08:56:44.839Z,4.58
2019-01-16T08:59:33.644Z,4.58
2019-01-16T09:02:21.890Z,4.52
2019-01-16T09:05:02.410Z,4.64
2019-01-16T09:07:50.866Z,4.54
2019-01-16T09:10:35.157Z,4.54
2019-01-16T09:13:23.692Z,4.55
2019-01-16T09:16:12.550Z,4.59
2019-01-16T09:18:54.372Z,4.59
2019-01-16T09:21:36.177Z,4.59
2019-01-16T09:24:24.432Z,4.69
2019-01-16T09:27:30.574Z,4.73
2019-01-16T09:30:18.020Z,4.66
2019-01-16T09:33:06.930Z,4.70
2019-01-16T09:35:50.633Z,4.70
2019-01-16T09:38:39.165Z,4.82
2019-01-16T09:41:27.643Z,4.72
2019-01-16T09:44:16.271Z,4.70
2019-01-16T09:46:53.942Z,4.70
2019-01-16T09:49:41.114Z,4.68
2019-01-16T09:52:29.516Z,4.78
2019-01-16T09:55:13.005Z,4.77
2019-01-16T09:58:01.502Z,4.63
2019-01-16T10:00:51.787Z,4.49
2019-01-16T10:03:40.253Z,4.59
2019-01-16T10:06:18.702Z,4.55
2019-01-16T10:08:56.849Z,4.55
2019-01-16T10:11:43.669Z,4.71
2019-01-16T10:14:25.754Z,4.71
2019-01-16T10:17:16.983Z,4.86
2019-01-16T10:20:06.708Z,4.86
2019-01-16T10:22:46.152Z,4.82
2019-01-16T10:25:29.725Z,4.82
2019-01-16T10:28:18.603Z,4.77
2019-01-16T10:31:06.961Z,4.83
2019-01-16T10:33:55.298Z,4.83
2019-01-16T10:36:41.473Z,4.71
2019-01-16T10:39:37.759Z,4.85
2019-01-16T10:42:20.095Z,4.76
2019-01-16T10:44:53.723Z,4.65
2019-01-16T10:47:43.014Z,4.82
2019-01-16T10:50:32.017Z,4.85
2019-01-16T10:53:16.795Z,4.92
2019-01-16T10:55:58.016Z,4.57
2019-01-16T10:58:39.952Z,4.57
2019-01-16T11:01:19.905Z,4.87
2019-01-16T11:04:08.418Z,4.74
2019-01-16T11:06:46.266Z,4.83
2019-01-16T11:12:49.681Z,4.96
2019-01-16T11:15:32.982Z,4.96
2019-01-16T11:18:21.286Z,4.73
2019-01-16T11:21:11.168Z,4.93
2019-01-16T11:23:59.658Z,4.93
2019-01-16T11:26:47.997Z,4.74
2019-01-16T11:29:36.495Z,4.88
2019-01-16T11:32:23.179Z,4.87
2019-01-16T11:35:12.589Z,4.71
2019-01-16T11:38:01.169Z,4.77
2019-01-16T11:40:50.826Z,4.79
2019-01-16T11:43:28.240Z,4.87
2019-01-16T11:46:10.235Z,4.86
2019-01-16T11:48:50.225Z,4.86
2019-01-16T11:51:38.687Z,4.81
2019-01-16T11:54:27.136Z,4.76
2019-01-16T11:57:04.403Z,4.76
2019-01-16T11:59:47.182Z,4.73
2019-01-16T12:02:38.293Z,4.73
2019-01-16T12:05:16.659Z,4.85
2019-01-16T12:08:04.843Z,4.85
2019-01-16T12:10:53.165Z,4.82
2019-01-16T12:13:41.723Z,4.99
2019-01-16T12:16:29.409Z,4.66
2019-01-16T12:19:18.356Z,4.67
2019-01-16T12:22:06.838Z,4.74
2019-01-16T12:24:55.613Z,4.61
2019-01-16T12:27:39.553Z,4.61
2019-01-16T12:30:32.099Z,4.61
2019-01-16T12:33:10.601Z,4.65
2019-01-16T12:35:51.101Z,4.65
2019-01-16T12:38:39.573Z,4.53
2019-01-16T12:41:20.281Z,4.67
2019-01-16T12:44:06.522Z,4.54
2019-01-16T12:46:56.517Z,4.59
2019-01-16T12:49:44.782Z,4.67
2019-01-16T12:52:32.208Z,4.67
2019-01-16T12:55:20.448Z,4.60
2019-01-16T13:01:15.292Z,4.59
2019-01-16T13:03:59.662Z,4.57
2019-01-16T13:06:47.982Z,4.60
2019-01-16T13:09:27.515Z,4.54
2019-01-16T13:12:15.736Z,4.54
2019-01-16T13:14:58.528Z,4.54
2019-01-16T13:17:46.854Z,4.42
2019-01-16T13:20:35.729Z,4.54
2019-01-16T13:23:24.028Z,4.51
2019-01-16T13:26:12.851Z,4.43
2019-01-16T13:29:00.624Z,4.53
2019-01-16T13:31:41.565Z,4.69
2019-01-16T13:34:30.287Z,4.69
2019-01-16T13:37:07.489Z,4.65
2019-01-16T13:39:53.889Z,4.58
2019-01-16T13:42:32.831Z,4.60
2019-01-16T13:45:20.872Z,4.73
2019-01-16T13:47:59.705Z,4.56
2019-01-16T13:50:48.131Z,4.52
2019-01-16T13:53:36.676Z,4.52
2019-01-16T13:56:24.933Z,4.64
2019-01-16T14:02:45.199Z,4.56
2019-01-16T14:05:24.177Z,4.47
2019-01-16T14:08:13.655Z,4.50
2019-01-16T14:10:49.244Z,4.49
2019-01-16T14:13:29.983Z,4.44
2019-01-16T14:16:08.997Z,4.40
2019-01-16T14:19:19.903Z,4.52
2019-01-16T14:22:08.576Z,4.39
2019-01-16T14:25:11.157Z,4.45
2019-01-16T14:27:59.847Z,4.41
2019-01-16T14:30:47.436Z,4.42
2019-01-16T14:33:35.595Z,4.34
2019-01-16T14:36:18.269Z,4.34
2019-01-16T14:39:06.809Z,4.37
2019-01-16T14:41:53.460Z,4.35
2019-01-16T14:47:37.080Z,4.47
2019-01-16T14:50:27.556Z,4.35
2019-01-16T14:53:25.948Z,4.34
2019-01-16T14:56:12.727Z,4.26
2019-01-16T14:59:00.905Z,4.26
2019-01-16T15:01:49.783Z,4.22
2019-01-16T15:04:33.405Z,4.27
2019-01-16T15:07:18.862Z,4.28
2019-01-16T15:09:57.898Z,4.28
2019-01-16T15:13:08.920Z,4.38
2019-01-16T15:19:00.362Z,4.21
2019-01-16T15:21:48.550Z,4.13
2019-01-16T15:24:28.636Z,4.06
2019-01-16T15:27:16.819Z,4.13
2019-01-16T15:30:05.246Z,4.10
2019-01-16T15:32:50.735Z,4.10
2019-01-16T15:35:36.292Z,4.05
2019-01-16T15:38:14.922Z,4.09
2019-01-16T15:41:03.549Z,4.29
2019-01-16T15:43:41.024Z,4.20
2019-01-16T15:46:21.201Z,4.07
2019-01-16T15:49:09.404Z,4.09
2019-01-16T15:51:58.141Z,4.12
2019-01-16T15:54:48.655Z,4.12
2019-01-16T15:57:30.030Z,3.90
2019-01-16T16:00:18.022Z,3.83
2019-01-16T16:03:03.939Z,3.89
2019-01-16T16:09:09.674Z,3.90
2019-01-16T16:11:52.724Z,3.90
2019-01-16T16:14:34.230Z,3.82
2019-01-16T16:17:16.102Z,3.76
2019-01-16T16:20:06.576Z,3.76
2019-01-16T16:22:44.159Z,3.87
2019-01-16T16:25:25.462Z,3.78
2019-01-16T16:28:07.745Z,3.75
2019-01-16T16:30:45.407Z,3.69
2019-01-16T16:33:33.636Z,3.52
2019-01-16T16:36:22.251Z,3.52
2019-01-16T16:39:09.311Z,3.60
2019-01-16T16:41:46.778Z,3.52
2019-01-16T16:44:34.451Z,3.56
2019-01-16T16:47:16.040Z,3.57
2019-01-16T16:50:02.673Z,3.54
2019-01-16T16:52:41.592Z,3.46
2019-01-16T16:55:30.353Z,3.37
2019-01-16T16:58:08.927Z,3.45
2019-01-16T17:00:57.700Z,3.38
2019-01-16T17:03:36.310Z,3.39
2019-01-16T17:06:19.092Z,3.31
2019-01-16T17:09:06.944Z,3.42
2019-01-16T17:11:50.383Z,3.42
2019-01-16T17:14:29.093Z,3.40
2019-01-16T17:17:17.609Z,3.50
2019-01-16T17:19:58.414Z,3.38
2019-01-16T17:22:47.401Z,3.33
2019-01-16T17:25:41.120Z,3.35
2019-01-16T17:28:29.474Z,3.35
2019-01-16T17:31:17.878Z,3.37
2019-01-16T17:34:02.856Z,3.35
2019-01-16T17:36:51.735Z,3.43
2019-01-16T17:39:40.044Z,3.43
2019-01-16T17:42:29.095Z,3.49
2019-01-16T17:45:17.599Z,3.49
2019-01-16T17:48:02.547Z,3.46
2019-01-16T17:50:46.640Z,3.47
2019-01-16T17:53:32.256Z,3.47
2019-01-16T17:56:13.497Z,3.50
2019-01-16T17:59:02.142Z,3.52
2019-01-16T18:01:50.392Z,3.39
2019-01-16T18:04:29.191Z,3.44
2019-01-16T18:07:13.377Z,3.47
2019-01-16T18:10:01.748Z,3.47
2019-01-16T18:12:51.058Z,3.49
2019-01-16T18:15:39.997Z,3.38
2019-01-16T18:18:28.149Z,3.47
2019-01-16T18:21:16.999Z,3.54
2019-01-16T18:24:08.423Z,3.56
2019-01-16T18:26:55.597Z,3.60
2019-01-16T18:29:34.969Z,3.58
2019-01-16T18:32:20.235Z,3.58
2019-01-16T18:35:26.374Z,3.52
2019-01-16T18:38:07.054Z,3.52
2019-01-16T18:40:54.634Z,3.51
2019-01-16T18:43:43.145Z,3.49
2019-01-16T18:46:31.395Z,3.44
2019-01-16T18:49:17.350Z,3.44
2019-01-16T18:52:06.345Z,3.44
2019-01-16T18:54:49.862Z,3.54
2019-01-16T18:57:27.804Z,3.54
2019-01-16T19:00:07.329Z,3.44
2019-01-16T19:02:55.516Z,3.37
2019-01-16T19:05:33.803Z,3.50
2019-01-16T19:08:19.900Z,3.44
2019-01-16T19:11:00.889Z,3.63
2019-01-16T19:13:49.210Z,3.51
2019-01-16T19:16:25.652Z,3.51
2019-01-16T19:19:08.216Z,3.57
2019-01-16T19:21:44.999Z,3.51
2019-01-16T19:24:25.957Z,3.63
2019-01-16T19:27:08.345Z,3.59
2019-01-16T19:29:48.118Z,3.73
2019-01-16T19:32:36.975Z,3.73
2019-01-16T19:35:21.679Z,3.69
2019-01-16T19:38:05.110Z,3.69
2019-01-16T19:40:53.346Z,3.66
2019-01-16T19:43:36.075Z,3.75
2019-01-16T19:46:21.756Z,3.75
2019-01-16T19:49:04.496Z,3.66
2019-01-16T19:51:45.848Z,3.73
2019-01-16T19:54:34.654Z,3.79
2019-01-16T19:57:17.130Z,3.88
2019-01-16T19:59:59.165Z,3.84
2019-01-16T20:02:47.592Z,3.89
2019-01-16T20:05:41.056Z,3.96
2019-01-16T20:08:21.693Z,3.95
2019-01-16T20:11:10.443Z,3.89
2019-01-16T20:13:54.862Z,3.89
2019-01-16T20:16:43.485Z,3.95
2019-01-16T20:19:32.337Z,4.05
2019-01-16T20:22:19.147Z,3.84
2019-01-16T20:25:07.116Z,3.88
2019-01-16T20:27:55.785Z,3.96
2019-01-16T20:30:38.068Z,3.96
2019-01-16T20:33:19.892Z,3.90
2019-01-16T20:36:01.669Z,3.94
2019-01-16T20:38:42.710Z,4.04
2019-01-16T20:41:31.713Z,3.98
2019-01-16T20:44:11.324Z,3.98
2019-01-16T20:46:50.119Z,4.00
2019-01-16T20:49:34.786Z,4.01
2019-01-16T20:52:23.305Z,4.01
2019-01-16T20:55:04.844Z,4.05
2019-01-16T20:57:53.200Z,4.09
2019-01-16T21:00:41.728Z,4.09
2019-01-16T21:03:29.908Z,4.17
2019-01-16T21:06:14.843Z,4.17
2019-01-16T21:08:57.182Z,4.09
2019-01-16T21:11:46.139Z,4.14
2019-01-16T21:14:34.800Z,4.20
2019-01-16T21:17:15.733Z,4.06
2019-01-16T21:19:57.956Z,4.18
2019-01-16T21:22:46.734Z,4.23
2019-01-16T21:25:35.518Z,4.10
2019-01-16T21:28:13.816Z,4.08
2019-01-16T21:31:02.232Z,4.08
2019-01-16T21:33:44.562Z,4.03
2019-01-16T21:36:28.764Z,4.11
2019-01-16T21:39:17.522Z,3.99
2019-01-16T21:41:56.974Z,3.99
2019-01-16T21:44:39.057Z,4.03
2019-01-16T21:47:29.317Z,4.03
2019-01-16T21:50:11.575Z,3.98
2019-01-16T21:52:56.866Z,4.10
2019-01-16T21:55:36.100Z,4.06
2019-01-16T21:58:20.273Z,4.01
2019-01-16T22:01:02.180Z,4.06
2019-01-16T22:03:50.654Z,4.11
2019-01-16T22:06:32.089Z,3.99
2019-01-16T22:09:15.472Z,4.05
2019-01-16T22:12:04.000Z,4.14
2019-01-16T22:14:52.419Z,4.03
2019-01-16T22:17:41.432Z,4.03
2019-01-16T22:20:20.777Z,4.03
2019-01-16T22:23:01.857Z,3.87
2019-01-16T22:25:45.148Z,3.75
2019-01-16T22:28:28.861Z,3.80
2019-01-16T22:31:17.246Z,3.83
2019-01-16T22:33:59.851Z,3.80
2019-01-16T22:36:41.558Z,3.75
2019-01-16T22:39:29.809Z,3.75
2019-01-16T22:42:18.467Z,3.85
2019-01-16T22:45:00.998Z,3.72
2019-01-16T22:47:41.434Z,3.72
2019-01-16T22:50:31.182Z,3.60
2019-01-16T22:53:19.539Z,3.60
2019-01-16T22:56:02.797Z,3.74
2019-01-16T22:58:49.175Z,3.63
2019-01-16T23:01:24.594Z,3.64
2019-01-16T23:04:05.482Z,3.64
2019-01-16T23:06:45.678Z,3.67
2019-01-16T23:09:27.244Z,3.67
2019-01-16T23:12:07.513Z,3.82
2019-01-16T23:14:55.819Z,3.68
2019-01-16T23:17:41.134Z,3.68
2019-01-16T23:20:25.820Z,3.75
2019-01-16T23:23:06.193Z,3.72
2019-01-16T23:25:49.302Z,3.72
2019-01-16T23:28:33.759Z,3.73
2019-01-16T23:31:17.600Z,3.72
2019-01-16T23:34:06.314Z,3.68
2019-01-16T23:36:47.130Z,3.64
2019-01-16T23:39:29.488Z,3.64
2019-01-16T23:42:17.837Z,3.70
2019-01-16T23:45:06.293Z,3.64
2019-01-16T23:47:58.170Z,3.59
2019-01-16T23:50:46.426Z,3.62
2019-01-16T23:53:27.764Z,3.65
2019-01-16T23:56:12.278Z,3.62
2019-01-16T23:58:57.179Z,3.54
